createdAt,value
2023-05-05T00:00:42.505Z,934.5
2023-05-05T00:15:40.942Z,934.4
2023-05-05T00:30:42.411Z,934.5
2023-05-05T00:45:43.277Z,934.3
2023-05-05T01:00:42.944Z,934.3
2023-05-05T01:15:43.640Z,934.3
2023-05-05T01:30:48.267Z,934.4
2023-05-05T01:45:46.219Z,934.6
2023-05-05T02:00:45.730Z,934.5
2023-05-05T02:15:46.232Z,934.6
2023-05-05T02:30:47.982Z,934.7
2023-05-05T02:45:47.616Z,934.7
2023-05-05T03:00:47.778Z,934.5
2023-05-05T03:15:48.529Z,934.7
2023-05-05T03:30:49.506Z,934.7
2023-05-05T03:45:50.588Z,934.7
2023-05-05T03:53:29.680Z,934.7
2023-05-05T04:08:30.645Z,934.9
2023-05-05T04:23:31.077Z,934.8
2023-05-05T04:38:33.281Z,935
2023-05-05T04:53:32.945Z,935
2023-05-05T05:08:33.259Z,935.2
2023-05-05T05:23:34.366Z,935.2
2023-05-05T05:38:37.885Z,935.2
2023-05-05T05:53:35.381Z,935.2
2023-05-05T06:08:35.777Z,935.4
2023-05-05T06:23:37.401Z,935.2
2023-05-05T06:38:37.510Z,934.7
2023-05-05T06:53:37.613Z,934.7
2023-05-05T07:08:38.718Z,934.7
2023-05-05T07:23:40.996Z,934.7
2023-05-05T07:38:39.451Z,934.6
2023-05-05T07:53:42.110Z,934.6
2023-05-05T08:08:42.387Z,934.4
2023-05-05T08:23:41.985Z,934.3
2023-05-05T08:38:42.412Z,934.2
2023-05-05T08:53:43.201Z,934.1
2023-05-05T09:08:44.856Z,934.1
2023-05-05T09:23:44.208Z,934
2023-05-05T09:38:45.386Z,933.9
2023-05-05T09:53:45.588Z,933.8
2023-05-05T10:08:46.361Z,933.7
2023-05-05T10:23:50.119Z,933.7
2023-05-05T10:38:47.355Z,933.4
2023-05-05T10:53:48.453Z,933.3
2023-05-05T11:08:53.049Z,933.1
2023-05-05T11:24:02.665Z,933.1
2023-05-05T11:38:53.250Z,933
2023-05-05T11:53:50.831Z,932.8
2023-05-05T12:08:52.591Z,932.6
2023-05-05T12:23:52.523Z,932.5
2023-05-05T12:38:52.964Z,932.4
2023-05-05T12:53:53.602Z,932.2
2023-05-05T13:08:55.103Z,932.1
2023-05-05T13:24:52.046Z,932
2023-05-05T13:38:56.135Z,931.6
2023-05-05T13:53:56.586Z,931.5
2023-05-05T14:08:57.338Z,931.4
2023-05-05T14:23:57.950Z,931.2
2023-05-05T14:39:00.697Z,931.1
2023-05-05T14:53:58.522Z,931.1
2023-05-05T15:08:59.262Z,931.1
2023-05-05T15:24:00.915Z,930.9
2023-05-05T15:39:01.910Z,930.9
2023-05-05T15:54:01.965Z,930.7
2023-05-05T16:09:02.582Z,930.7
2023-05-05T16:39:03.846Z,930.5
2023-05-05T16:54:07.283Z,930.5
2023-05-05T17:09:07.656Z,930.3
2023-05-05T17:24:08.521Z,930.3
2023-05-05T17:39:08.981Z,932.1
2023-05-05T17:54:08.449Z,933.4
2023-05-05T18:09:28.712Z,933.4
2023-05-05T18:24:24.187Z,934.6
2023-05-05T18:39:17.350Z,935.7
2023-05-05T18:54:24.365Z,938
2023-05-05T19:09:11.503Z,936.9
2023-05-05T19:24:16.834Z,936.9
2023-05-05T19:54:14.436Z,937.6
2023-05-05T20:09:27.378Z,937.6
2023-05-05T20:24:15.102Z,937.9
2023-05-05T20:39:16.766Z,937.8
2023-05-05T20:54:19.377Z,937.8
2023-05-05T21:09:19.891Z,938.2
2023-05-05T21:24:22.980Z,938.2
2023-05-05T21:39:18.559Z,938.5
2023-05-05T21:54:19.349Z,938.6
2023-05-05T22:00:38.033Z,938.4
2023-05-05T22:15:48.313Z,938
2023-05-05T22:30:39.525Z,938.1
2023-05-05T22:45:39.355Z,937.8
2023-05-05T23:00:39.846Z,938.3
2023-05-05T23:15:41.486Z,938.3
